Time;durP1;ratioP1;P1;durP2;ratioP2;P2;SDS_P1;SDS_P2;PMS_P1;PMS_P2;Temp;Humidity;BMP_temperature;BMP_pressure;BME280_temperature;BME280_humidity;BME280_pressure;Samples;Min_cycle;Max_cycle;Signal;HPM_P1;HPM_P2
2022/06/12 00:00:08;;;;;;;2.70;1.52;;;22.00;62.60;;;;;;4950475;28;90908;-75
2022/06/12 00:02:33;;;;;;;2.65;1.40;;;22.00;62.60;;;;;;4953695;28;87947;-74
2022/06/12 00:04:59;;;;;;;2.97;1.38;;;22.00;62.50;;;;;;4965386;28;88721;-74
2022/06/12 00:07:25;;;;;;;2.13;1.20;;;22.00;62.60;;;;;;4951255;28;89401;-74
2022/06/12 00:09:50;;;;;;;2.65;1.40;;;22.00;62.70;;;;;;4950208;28;91891;-74
2022/06/12 00:12:16;;;;;;;3.05;1.50;;;22.00;62.40;;;;;;4952287;28;87172;-74
2022/06/12 00:14:42;;;;;;;2.13;1.30;;;22.00;62.50;;;;;;4952094;28;88321;-74
2022/06/12 00:17:08;;;;;;;2.63;1.30;;;22.00;62.60;;;;;;4951955;28;87994;-74
2022/06/12 00:19:34;;;;;;;3.03;1.75;;;22.00;62.40;;;;;;4951289;28;87949;-74
2022/06/12 00:22:00;;;;;;;4.70;1.83;;;22.00;62.50;;;;;;4950581;28;87287;-74
2022/06/12 00:24:26;;;;;;;2.17;1.20;;;22.00;62.50;;;;;;4953153;28;86681;-74
2022/06/12 00:26:54;;;;;;;3.25;1.45;;;22.00;62.50;;;;;;4954596;28;88055;-76
2022/06/12 00:29:32;;;;;;;2.30;1.45;;;22.00;62.40;;;;;;4950977;28;87767;-75
2022/06/12 00:32:14;;;;;;;2.10;1.15;;;22.00;62.30;;;;;;4950815;28;88669;-74
2022/06/12 00:34:47;;;;;;;1.95;1.10;;;22.00;62.60;;;;;;4950521;28;87559;-77
2022/06/12 00:37:13;;;;;;;1.58;1.13;;;22.00;62.50;;;;;;4956144;28;87944;-75
2022/06/12 00:39:44;;;;;;;2.45;1.40;;;22.00;62.60;;;;;;4951930;28;89127;-74
2022/06/12 00:42:30;;;;;;;2.78;1.20;;;22.00;62.60;;;;;;4951524;28;88004;-76
2022/06/12 00:44:59;;;;;;;1.85;1.10;;;22.00;62.50;;;;;;4951387;28;89773;-76
2022/06/12 00:47:25;;;;;;;;;;;22.00;62.50;;;;;;4951796;28;87616;-74
2022/06/12 00:49:57;;;;;;;3.15;1.50;;;22.00;62.60;;;;;;4951382;28;90303;-76
2022/06/12 00:52:34;;;;;;;1.83;1.02;;;22.00;62.60;;;;;;4950594;28;88083;-74
2022/06/12 00:55:14;;;;;;;2.33;1.30;;;22.00;62.40;;;;;;4951102;28;87642;-74
2022/06/12 00:57:43;;;;;;;4.57;1.63;;;22.00;62.30;;;;;;4964070;28;89732;-74
2022/06/12 01:00:13;;;;;;;2.08;1.05;;;22.00;62.70;;;;;;4949193;28;90768;-74
2022/06/12 01:02:41;;;;;;;2.25;1.35;;;22.00;62.60;;;;;;4949216;28;87206;-75
2022/06/12 01:07:57;;;;;;;2.72;1.48;;;22.00;62.40;;;;;;4950318;28;87860;-74
2022/06/12 01:10:28;;;;;;;3.10;1.27;;;22.00;62.50;;;;;;4950079;28;87524;-78
2022/06/12 01:13:15;;;;;;;1.25;1.10;;;22.00;62.50;;;;;;4947268;28;87963;-74
2022/06/12 01:15:48;;;;;;;2.95;1.35;;;22.00;62.60;;;;;;4957147;28;87003;-77
2022/06/12 01:18:17;;;;;;;2.13;1.30;;;22.00;62.80;;;;;;4951043;28;88103;-75
2022/06/12 01:21:06;;;;;;;2.85;0.98;;;22.00;62.50;;;;;;4950775;28;87988;-76
2022/06/12 01:23:38;;;;;;;1.52;1.10;;;22.00;62.80;;;;;;4949886;28;88524;-74
2022/06/12 01:26:30;;;;;;;2.22;1.38;;;22.00;62.60;;;;;;4949985;28;87975;-74
2022/06/12 01:29:36;;;;;;;2.92;1.65;;;22.00;62.60;;;;;;4952727;28;88217;-74
2022/06/12 01:32:01;;;;;;;1.88;1.20;;;22.00;62.70;;;;;;4926050;28;87795;-76
2022/06/12 01:34:41;;;;;;;1.75;1.00;;;22.00;62.70;;;;;;4950460;28;87243;-75
2022/06/12 01:37:13;;;;;;;1.63;1.05;;;22.00;62.60;;;;;;4950422;28;87335;-74
2022/06/12 01:39:57;;;;;;;2.80;1.40;;;22.00;62.60;;;;;;4950403;28;88074;-75
2022/06/12 01:42:57;;;;;;;1.95;1.02;;;22.00;62.60;;;;;;4950065;28;87841;-76
2022/06/12 01:45:28;;;;;;;1.90;1.27;;;21.90;62.60;;;;;;4950627;28;86820;-73
2022/06/12 01:48:04;;;;;;;3.03;1.67;;;22.00;62.70;;;;;;4948378;28;90012;-75
2022/06/12 01:50:56;;;;;;;2.78;1.30;;;22.00;62.80;;;;;;4950357;28;88821;-75
2022/06/12 01:53:49;;;;;;;1.92;1.30;;;21.90;62.70;;;;;;4950275;28;88686;-75
2022/06/12 01:56:24;;;;;;;3.10;1.48;;;22.00;62.70;;;;;;4950477;28;87746;-75
2022/06/12 01:59:09;;;;;;;2.63;1.40;;;22.00;62.70;;;;;;4950094;28;87827;-75
2022/06/12 02:01:43;;;;;;;1.30;1.00;;;21.90;62.70;;;;;;4948359;28;90476;-75
2022/06/12 02:04:27;;;;;;;1.98;1.08;;;21.90;62.70;;;;;;4950774;28;87826;-75
2022/06/12 02:07:12;;;;;;;1.60;1.02;;;21.90;62.60;;;;;;4950210;28;87413;-75
2022/06/12 02:09:46;;;;;;;2.22;1.08;;;21.90;62.70;;;;;;4950482;28;87038;-76
2022/06/12 02:15:22;;;;;;;1.77;1.45;;;21.90;62.70;;;;;;4950482;28;87537;-76
2022/06/12 02:18:13;;;;;;;1.55;1.00;;;21.90;62.70;;;;;;4950001;28;88631;-75
2022/06/12 02:20:43;;;;;;;1.88;1.10;;;21.90;62.50;;;;;;4949788;28;87721;-76
2022/06/12 02:23:16;;;;;;;1.58;1.17;;;21.90;62.80;;;;;;4950016;28;88687;-76
2022/06/12 02:25:45;;;;;;;2.97;1.55;;;21.90;62.70;;;;;;4964243;28;91042;-74
2022/06/12 02:28:15;;;;;;;1.90;0.98;;;21.90;62.70;;;;;;4949313;28;87281;-74
2022/06/12 02:30:46;;;;;;;2.10;1.27;;;21.90;62.60;;;;;;4949671;28;87362;-75
2022/06/12 02:33:25;;;;;;;1.98;1.27;;;21.90;62.80;;;;;;4949759;28;87788;-75
2022/06/12 02:36:14;;;;;;;2.83;1.20;;;21.90;62.80;;;;;;4950028;28;87229;-74
2022/06/12 02:38:52;;;;;;;1.48;1.27;;;21.90;62.80;;;;;;4941011;28;87349;-74
2022/06/12 02:41:35;;;;;;;1.73;1.15;;;21.90;62.80;;;;;;4951431;28;88025;-74
2022/06/12 02:44:09;;;;;;;1.73;1.05;;;21.90;62.90;;;;;;4949014;28;89040;-74
2022/06/12 02:46:46;;;;;;;1.90;0.98;;;21.90;62.90;;;;;;4948868;28;88781;-73
2022/06/12 02:49:14;;;;;;;1.75;1.00;;;21.90;62.90;;;;;;4949590;28;86972;-73
2022/06/12 02:52:06;;;;;;;2.22;1.08;;;21.90;62.90;;;;;;4950260;28;86976;-74
2022/06/12 02:54:52;;;;;;;1.40;1.02;;;21.90;62.90;;;;;;4949854;28;88209;-74
2022/06/12 02:57:19;;;;;;;1.40;0.98;;;21.90;62.80;;;;;;4947983;28;87775;-77
2022/06/12 02:59:45;;;;;;;2.33;1.10;;;21.90;62.90;;;;;;4948330;28;87282;-74
2022/06/12 03:02:19;;;;;;;2.72;1.20;;;21.90;62.90;;;;;;4950953;28;87389;-75
2022/06/12 03:04:57;;;;;;;1.95;1.20;;;21.90;62.80;;;;;;4949064;28;87985;-73
2022/06/12 03:07:23;;;;;;;2.50;1.20;;;21.90;62.90;;;;;;4956581;28;87812;-74
2022/06/12 03:09:49;;;;;;;1.92;1.30;;;21.90;62.80;;;;;;4953571;28;88808;-73
2022/06/12 03:12:15;;;;;;;1.80;1.10;;;21.90;62.70;;;;;;4948973;28;87681;-77
2022/06/12 03:14:42;;;;;;;1.30;0.90;;;21.90;63.00;;;;;;4949018;28;88581;-72
2022/06/12 03:17:08;;;;;;;2.08;1.17;;;21.90;62.90;;;;;;4947978;28;87281;-73
2022/06/12 03:19:42;;;;;;;2.20;1.40;;;21.90;63.00;;;;;;4949473;28;88062;-76
2022/06/12 03:22:16;;;;;;;1.00;0.90;;;21.90;63.10;;;;;;4951558;28;88580;-73
2022/06/12 03:24:52;;;;;;;2.35;1.05;;;21.80;62.80;;;;;;4952912;28;87827;-75
2022/06/12 03:27:29;;;;;;;2.30;1.20;;;21.80;62.80;;;;;;4953682;28;87135;-70
2022/06/12 03:30:17;;;;;;;1.90;1.10;;;21.80;62.90;;;;;;4955405;28;87532;-73
2022/06/12 03:33:10;;;;;;;1.73;1.17;;;21.80;63.10;;;;;;4970279;28;87928;-73
2022/06/12 03:35:52;;;;;;;1.70;1.10;;;21.80;63.00;;;;;;4951265;28;89496;-73
2022/06/12 03:38:38;;;;;;;1.65;1.20;;;21.80;63.00;;;;;;4951732;28;88203;-74
2022/06/12 03:41:20;;;;;;;2.05;1.30;;;21.80;62.80;;;;;;4951594;28;87757;-77
2022/06/12 03:44:10;;;;;;;1.98;1.35;;;21.80;63.00;;;;;;4949498;28;89943;-73
2022/06/12 03:46:54;;;;;;;1.05;0.90;;;21.80;63.00;;;;;;4952226;28;88664;-74
2022/06/12 03:49:32;;;;;;;1.48;1.10;;;21.80;63.10;;;;;;4951800;28;87547;-73
2022/06/12 03:52:19;;;;;;;1.17;0.98;;;21.80;63.10;;;;;;4955237;28;87783;-76
2022/06/12 03:54:56;;;;;;;2.03;1.00;;;21.80;63.10;;;;;;4952359;28;86969;-75
2022/06/12 03:57:52;;;;;;;2.03;1.33;;;21.80;63.00;;;;;;4953405;28;88419;-74
2022/06/12 04:00:42;;;;;;;1.85;1.20;;;21.80;63.10;;;;;;4951312;28;88242;-76
2022/06/12 04:03:15;;;;;;;1.23;1.00;;;21.80;63.00;;;;;;4950302;28;88771;-74
2022/06/12 04:05:45;;;;;;;1.17;0.98;;;21.80;63.10;;;;;;4955691;28;87188;-74
2022/06/12 04:08:20;;;;;;;2.00;1.25;;;21.80;63.20;;;;;;4953239;28;87759;-75
2022/06/12 04:10:47;;;;;;;1.58;0.90;;;21.80;63.10;;;;;;4953807;28;87716;-73
2022/06/12 04:13:15;;;;;;;1.95;0.98;;;21.80;63.20;;;;;;4953252;28;87911;-74
2022/06/12 04:15:43;;;;;;;1.77;1.10;;;21.80;63.10;;;;;;4952334;28;87442;-74
2022/06/12 04:18:09;;;;;;;2.15;1.35;;;21.80;63.10;;;;;;4957533;28;88194;-74
2022/06/12 04:20:37;;;;;;;2.85;1.13;;;21.80;63.20;;;;;;4951513;28;87276;-74
2022/06/12 04:23:09;;;;;;;1.33;0.93;;;21.80;63.10;;;;;;4949352;28;87587;-74
2022/06/12 04:25:37;;;;;;;1.30;0.90;;;21.80;63.30;;;;;;4951076;28;87098;-74
2022/06/12 04:28:17;;;;;;;1.27;0.80;;;21.80;63.00;;;;;;4950193;28;89321;-73
2022/06/12 04:30:43;;;;;;;1.27;1.02;;;21.80;63.00;;;;;;4948727;28;91893;-76
2022/06/12 04:33:18;;;;;;;1.40;1.10;;;21.80;63.00;;;;;;4951377;28;87287;-74
2022/06/12 04:35:50;;;;;;;1.88;1.13;;;21.80;62.90;;;;;;4965749;28;89046;-74
2022/06/12 04:38:17;;;;;;;1.77;1.13;;;21.90;63.00;;;;;;4957636;28;87864;-73
2022/06/12 04:40:42;;;;;;;1.10;1.00;;;21.90;63.00;;;;;;4952282;28;87229;-75
2022/06/12 04:43:08;;;;;;;2.10;1.25;;;21.90;63.00;;;;;;4951081;28;87899;-73
2022/06/12 04:45:33;;;;;;;2.03;1.45;;;21.90;63.10;;;;;;4953238;28;86671;-76
2022/06/12 04:48:01;;;;;;;1.73;1.15;;;21.90;63.00;;;;;;4951893;28;88165;-79
2022/06/12 04:50:27;;;;;;;1.25;1.10;;;21.90;63.00;;;;;;4950385;28;87948;-73
2022/06/12 04:52:53;;;;;;;1.50;1.00;;;21.90;62.90;;;;;;4956469;28;87947;-74
2022/06/12 04:55:18;;;;;;;1.58;1.10;;;21.90;63.10;;;;;;4951103;28;87679;-74
2022/06/12 04:57:44;;;;;;;1.45;1.10;;;21.90;63.10;;;;;;4957491;28;87622;-79
2022/06/12 05:00:11;;;;;;;2.65;1.13;;;22.00;63.20;;;;;;4953695;28;87763;-73
2022/06/12 05:02:37;;;;;;;1.23;1.00;;;21.90;63.10;;;;;;4955213;28;87406;-74
2022/06/12 05:05:03;;;;;;;1.10;0.80;;;21.90;63.00;;;;;;4953096;28;87564;-76
2022/06/12 05:07:28;;;;;;;1.38;1.00;;;21.90;64.00;;;;;;4951858;28;88608;-76
2022/06/12 05:09:54;;;;;;;1.45;1.00;;;22.00;63.30;;;;;;4951149;28;87558;-76
2022/06/12 05:12:20;;;;;;;1.88;1.05;;;22.00;63.30;;;;;;4952812;28;88021;-74
2022/06/12 05:14:45;;;;;;;1.23;0.90;;;22.00;63.30;;;;;;4965857;28;89824;-74
2022/06/12 05:17:14;;;;;;;1.58;1.05;;;22.00;63.30;;;;;;4949868;28;88689;-76
2022/06/12 05:19:42;;;;;;;1.57;0.97;;;22.00;63.20;;;;;;4950922;28;88230;-75
2022/06/12 05:22:09;;;;;;;1.40;0.90;;;22.00;63.20;;;;;;4953608;28;87553;-74
2022/06/12 05:24:35;;;;;;;1.98;0.90;;;22.00;63.30;;;;;;4952489;28;87486;-74
2022/06/12 05:27:05;;;;;;;0.98;0.80;;;22.10;63.40;;;;;;4952478;28;87679;-78
2022/06/12 05:29:32;;;;;;;;;;;22.10;63.40;;;;;;4951215;28;87935;-77
2022/06/12 05:31:59;;;;;;;1.10;0.85;;;22.10;63.20;;;;;;4952786;28;87367;-74
2022/06/12 05:34:26;;;;;;;0.90;0.90;;;22.10;63.20;;;;;;4950985;28;87641;-74
2022/06/12 05:36:53;;;;;;;1.48;0.90;;;22.10;63.50;;;;;;4950523;28;87420;-75
2022/06/12 05:39:20;;;;;;;2.58;0.85;;;22.10;63.40;;;;;;4950712;28;87884;-75
2022/06/12 05:41:46;;;;;;;1.40;1.00;;;22.10;63.50;;;;;;4949630;28;89008;-76
2022/06/12 05:44:12;;;;;;;1.60;1.00;;;22.10;63.60;;;;;;4950628;28;87650;-74
2022/06/12 05:46:38;;;;;;;1.48;0.80;;;22.10;64.50;;;;;;4956807;28;87574;-73
2022/06/12 05:49:05;;;;;;;1.13;0.93;;;22.10;63.60;;;;;;4977689;22;87973;-87
2022/06/12 05:51:32;;;;;;;1.48;0.80;;;22.10;63.70;;;;;;4962954;28;87569;-86
2022/06/12 05:54:19;;;;;;;1.05;0.77;;;22.10;63.60;;;;;;4959149;28;87819;-85
2022/06/12 05:56:45;;;;;;;1.80;1.00;;;22.20;63.70;;;;;;4952358;28;89015;-86
2022/06/12 05:59:24;;;;;;;2.15;1.02;;;22.10;63.70;;;;;;4952521;28;87203;-84
2022/06/12 06:01:50;;;;;;;1.10;0.90;;;22.10;63.80;;;;;;4953970;28;87356;-83
2022/06/12 06:04:16;;;;;;;1.23;0.77;;;22.10;63.80;;;;;;4954629;28;87872;-86
2022/06/12 06:06:46;;;;;;;1.85;0.98;;;22.10;63.80;;;;;;4953087;28;88635;-86
2022/06/12 06:09:12;;;;;;;1.40;1.00;;;22.10;63.60;;;;;;4953575;28;88157;-86
2022/06/12 06:11:38;;;;;;;1.15;1.05;;;22.10;63.40;;;;;;4951486;28;87012;-84
2022/06/12 06:14:14;;;;;;;1.63;1.05;;;22.10;63.20;;;;;;4951855;28;87297;-86
2022/06/12 06:16:41;;;;;;;1.55;0.90;;;22.10;63.30;;;;;;4951626;28;88882;-86
2022/06/12 06:19:10;;;;;;;2.78;1.10;;;22.10;63.30;;;;;;4951753;28;87873;-86
2022/06/12 06:21:36;;;;;;;1.95;1.33;;;22.20;63.30;;;;;;4951008;28;88223;-87
2022/06/12 06:24:23;;;;;;;2.17;1.10;;;22.20;63.20;;;;;;4952329;28;87581;-86
2022/06/12 06:26:48;;;;;;;2.28;1.10;;;22.20;63.40;;;;;;4967565;28;90371;-85
2022/06/12 06:29:14;;;;;;;3.75;1.50;;;22.20;63.20;;;;;;4954639;28;88467;-86
2022/06/12 06:31:40;;;;;;;7.18;1.95;;;22.20;62.30;;;;;;4951991;28;88621;-85
2022/06/12 06:34:06;;;;;;;9.40;3.03;;;22.20;60.80;;;;;;4954119;28;87833;-86
2022/06/12 06:36:32;;;;;;;6.38;2.03;;;22.10;59.20;;;;;;4953472;28;87808;-88
2022/06/12 06:38:58;;;;;;;8.23;1.92;;;22.20;60.60;;;;;;4953725;28;87920;-84
2022/06/12 06:41:25;;;;;;;10.82;2.22;;;22.20;60.00;;;;;;4967489;28;88191;-86
2022/06/12 06:46:35;;;;;;;7.53;2.78;;;22.10;59.10;;;;;;4952682;28;87017;-84
2022/06/12 06:49:08;;;;;;;13.93;3.15;;;22.10;59.00;;;;;;4949121;28;87878;-83
2022/06/12 06:51:35;;;;;;;9.27;2.25;;;22.10;58.90;;;;;;4955340;28;87336;-85
2022/06/12 06:54:00;;;;;;;9.82;2.95;;;22.10;58.90;;;;;;4956087;28;87789;-89
2022/06/12 06:56:27;;;;;;;16.33;3.30;;;22.10;57.70;;;;;;4960906;22;88875;-76
2022/06/12 06:58:53;;;;;;;10.80;2.90;;;22.10;58.00;;;;;;4968139;28;91688;-74
2022/06/12 07:01:19;;;;;;;12.60;3.17;;;22.10;58.00;;;;;;4960547;28;87566;-72
2022/06/12 07:03:45;;;;;;;12.45;3.20;;;22.10;58.00;;;;;;4957353;28;87474;-73
2022/06/12 07:06:12;;;;;;;11.25;2.63;;;22.10;57.90;;;;;;4976431;28;90664;-75
2022/06/12 07:08:38;;;;;;;10.75;3.25;;;22.10;58.60;;;;;;4958755;28;88563;-75
2022/06/12 07:11:03;;;;;;;13.07;2.92;;;22.10;58.00;;;;;;4958706;28;87230;-72
2022/06/12 07:13:29;;;;;;;17.35;3.95;;;22.10;58.30;;;;;;4952832;28;87903;-73
2022/06/12 07:15:55;;;;;;;9.90;2.95;;;22.20;58.90;;;;;;4953103;28;91259;-73
2022/06/12 07:18:21;;;;;;;10.85;2.35;;;22.20;59.10;;;;;;4949785;28;90629;-73
2022/06/12 07:20:51;;;;;;;13.55;3.25;;;22.20;59.50;;;;;;4951100;28;89290;-71
2022/06/12 07:23:18;;;;;;;15.00;3.00;;;22.20;58.90;;;;;;4969423;28;90000;-71
2022/06/12 07:25:49;;;;;;;10.15;3.03;;;22.20;58.70;;;;;;4938008;28;89754;-71
2022/06/12 07:28:15;;;;;;;8.10;2.67;;;22.20;58.90;;;;;;4969514;28;90291;-74
2022/06/12 07:30:42;;;;;;;14.15;3.45;;;22.20;59.20;;;;;;4951718;28;88348;-74
2022/06/12 07:33:08;;;;;;;14.30;3.08;;;22.30;59.70;;;;;;4966606;28;91394;-75
2022/06/12 07:35:37;;;;;;;20.65;3.90;;;22.20;59.80;;;;;;4951696;28;89183;-71
2022/06/12 07:38:03;;;;;;;16.48;4.13;;;22.30;60.00;;;;;;4952001;28;87788;-74
2022/06/12 07:40:34;;;;;;;25.20;4.60;;;22.30;60.20;;;;;;4954945;28;87103;-73
2022/06/12 07:43:00;;;;;;;26.00;4.40;;;22.20;59.90;;;;;;4963529;28;87205;-73
2022/06/12 07:45:26;;;;;;;19.58;4.53;;;22.30;60.10;;;;;;4952529;28;89159;-75
2022/06/12 07:47:51;;;;;;;21.90;4.70;;;22.30;60.30;;;;;;4950720;28;88480;-76
2022/06/12 07:50:17;;;;;;;21.83;4.95;;;22.30;60.10;;;;;;4969257;28;87529;-74
2022/06/12 07:52:42;;;;;;;18.13;5.15;;;22.20;59.90;;;;;;4959021;28;87928;-73
2022/06/12 07:55:13;;;;;;;15.90;4.75;;;22.30;59.60;;;;;;4951800;28;88062;-75
2022/06/12 07:57:40;;;;;;;17.63;4.82;;;22.30;59.60;;;;;;4955619;28;88513;-76
2022/06/12 08:00:08;;;;;;;16.85;4.45;;;22.30;59.50;;;;;;4952431;28;88346;-75
2022/06/12 08:02:34;;;;;;;20.50;4.55;;;22.30;59.80;;;;;;4950739;28;88263;-74
2022/06/12 08:04:59;;;;;;;19.17;5.03;;;22.30;59.80;;;;;;4950882;28;87987;-73
2022/06/12 08:07:25;;;;;;;15.20;4.13;;;22.30;60.10;;;;;;4952096;28;88142;-72
2022/06/12 08:09:51;;;;;;;21.63;4.45;;;22.30;60.60;;;;;;4951904;28;88847;-74
2022/06/12 08:12:16;;;;;;;16.65;4.57;;;22.20;60.40;;;;;;4963019;28;87902;-72
2022/06/12 08:14:42;;;;;;;13.43;4.55;;;22.20;60.50;;;;;;4957030;28;88058;-76
2022/06/12 08:17:08;;;;;;;12.63;3.20;;;22.20;60.60;;;;;;4953165;28;87849;-76
2022/06/12 08:22:19;;;;;;;17.95;4.03;;;22.20;60.80;;;;;;4953933;28;87966;-74
2022/06/12 08:24:45;;;;;;;16.08;3.83;;;22.30;60.90;;;;;;4948367;28;90489;-75
2022/06/12 08:27:11;;;;;;;15.63;3.92;;;22.30;60.70;;;;;;4956733;28;87178;-75
2022/06/12 08:29:37;;;;;;;16.80;3.20;;;22.20;60.40;;;;;;4952328;28;87604;-76
2022/06/12 08:32:14;;;;;;;14.43;3.30;;;22.30;60.50;;;;;;4952156;28;87472;-72
2022/06/12 08:34:46;;;;;;;19.25;5.00;;;22.20;60.10;;;;;;4950762;28;89518;-73
2022/06/12 08:37:34;;;;;;;16.40;3.45;;;22.20;60.30;;;;;;4965828;28;91939;-75
2022/06/12 08:40:00;;;;;;;12.50;3.65;;;22.30;60.40;;;;;;4966235;28;88386;-75
2022/06/12 08:42:42;;;;;;;16.40;4.13;;;22.20;60.20;;;;;;4954398;28;88137;-74
2022/06/12 08:45:26;;;;;;;13.20;3.35;;;22.30;60.30;;;;;;4951481;28;88157;-75
2022/06/12 08:47:57;;;;;;;10.35;3.65;;;22.20;60.20;;;;;;4955326;28;88052;-75
2022/06/12 08:50:36;;;;;;;10.85;3.05;;;22.20;60.10;;;;;;4951310;28;87650;-72
2022/06/12 08:53:24;;;;;;;14.73;3.63;;;22.20;60.10;;;;;;4950629;28;87418;-75
2022/06/12 08:56:00;;;;;;;14.20;3.78;;;22.30;60.40;;;;;;4949495;28;88145;-74
2022/06/12 08:58:47;;;;;;;11.80;3.70;;;22.20;60.10;;;;;;4950411;28;89061;-75
2022/06/12 09:01:12;;;;;;;13.73;3.55;;;22.30;60.20;;;;;;4951012;28;88593;-76
2022/06/12 09:03:43;;;;;;;12.52;3.53;;;22.30;60.30;;;;;;4950043;28;87875;-75
2022/06/12 09:06:25;;;;;;;11.50;3.25;;;22.30;60.50;;;;;;4953683;28;90545;-74
2022/06/12 09:09:05;;;;;;;15.40;3.97;;;22.30;60.70;;;;;;4949186;28;90023;-75
2022/06/12 09:11:48;;;;;;;16.52;3.95;;;22.30;60.60;;;;;;4950263;28;87852;-75
2022/06/12 09:14:37;;;;;;;12.98;3.33;;;22.30;60.50;;;;;;4945899;28;89451;-73
2022/06/12 09:17:15;;;;;;;10.38;3.33;;;22.30;60.80;;;;;;4948200;28;91215;-72
2022/06/12 09:19:47;;;;;;;13.98;3.63;;;22.30;60.70;;;;;;4950086;28;87271;-74
2022/06/12 09:22:35;;;;;;;14.85;3.33;;;22.30;60.90;;;;;;4949750;28;87804;-74
2022/06/12 09:25:07;;;;;;;7.33;3.37;;;22.30;61.00;;;;;;4943851;28;88049;-75
2022/06/12 09:27:50;;;;;;;9.05;3.10;;;22.30;61.10;;;;;;4947918;28;91261;-73
2022/06/12 09:30:25;;;;;;;17.02;4.10;;;22.30;61.30;;;;;;4954090;28;89610;-74
2022/06/12 09:33:01;;;;;;;13.43;4.10;;;22.30;61.90;;;;;;4953830;28;87410;-74
2022/06/12 09:35:55;;;;;;;13.73;3.42;;;22.30;62.90;;;;;;4949915;28;87880;-74
2022/06/12 09:38:39;;;;;;;16.23;4.22;;;22.30;63.30;;;;;;4956126;28;87633;-74
2022/06/12 09:41:25;;;;;;;13.98;3.85;;;22.30;63.90;;;;;;4949593;28;88693;-75
2022/06/12 09:44:09;;;;;;;20.00;3.90;;;22.30;63.80;;;;;;4964831;28;87386;-75
2022/06/12 09:46:53;;;;;;;14.63;3.63;;;22.30;63.90;;;;;;4950268;28;87258;-73
2022/06/12 09:49:46;;;;;;;10.80;3.95;;;22.30;63.80;;;;;;4954668;28;87734;-73
2022/06/12 09:52:33;;;;;;;10.35;3.67;;;22.30;64.20;;;;;;4964686;28;89665;-74
2022/06/12 09:55:19;;;;;;;18.45;4.80;;;22.30;64.30;;;;;;4955110;28;88267;-73
2022/06/12 09:58:23;;;;;;;121.63;23.48;;;22.30;64.30;;;;;;4948860;28;89998;-73
2022/06/12 10:01:10;;;;;;;98.72;22.33;;;22.30;64.20;;;;;;4906510;28;88239;-75
2022/06/12 10:03:42;;;;;;;57.47;13.70;;;22.30;63.80;;;;;;4944962;28;90425;-74
2022/06/12 10:06:23;;;;;;;51.70;12.70;;;22.30;63.90;;;;;;4964954;28;86888;-73
2022/06/12 10:08:51;;;;;;;48.25;12.65;;;22.30;64.40;;;;;;4947550;28;88927;-75
2022/06/12 10:11:23;;;;;;;43.67;11.13;;;22.30;64.00;;;;;;4946710;28;91027;-73
2022/06/12 10:13:52;;;;;;;47.00;12.30;;;22.40;64.00;;;;;;4952074;28;87274;-72
2022/06/12 10:16:20;;;;;;;;;;;22.40;64.40;;;;;;4951809;28;87004;-74
2022/06/12 10:18:55;;;;;;;38.05;9.63;;;22.30;64.90;;;;;;4949470;28;88420;-72
2022/06/12 10:21:24;;;;;;;37.83;10.75;;;22.40;64.70;;;;;;4948213;28;88632;-74
2022/06/12 10:23:51;;;;;;;43.00;10.23;;;22.30;64.50;;;;;;4963519;28;90581;-76
2022/06/12 10:26:25;;;;;;;28.88;7.28;;;22.30;64.30;;;;;;4953386;28;87537;-74
2022/06/12 10:29:02;;;;;;;30.33;7.78;;;22.30;62.80;;;;;;4953258;28;87372;-73
2022/06/12 10:31:29;;;;;;;40.42;8.95;;;22.40;63.10;;;;;;4954560;28;87800;-76
2022/06/12 10:34:22;;;;;;;30.92;8.32;;;22.40;63.80;;;;;;4952836;28;87869;-74
2022/06/12 10:36:49;;;;;;;25.98;8.00;;;22.40;63.80;;;;;;4967043;28;87564;-73
2022/06/12 10:39:21;;;;;;;31.45;7.70;;;22.40;63.40;;;;;;4954353;28;87882;-75
2022/06/12 10:41:51;;;;;;;29.38;7.68;;;22.40;63.40;;;;;;4954636;28;88284;-75
2022/06/12 10:44:26;;;;;;;28.67;7.25;;;22.40;63.30;;;;;;4952177;28;88069;-75
2022/06/12 10:46:52;;;;;;;24.77;7.55;;;22.40;63.40;;;;;;4955602;28;87904;-75
2022/06/12 10:49:22;;;;;;;27.80;6.85;;;22.40;63.70;;;;;;4950621;28;88084;-76
2022/06/12 10:51:49;;;;;;;27.90;7.55;;;22.40;63.60;;;;;;4975098;28;91402;-75
2022/06/12 10:54:18;;;;;;;25.90;7.30;;;22.40;63.30;;;;;;4969204;28;91279;-75
2022/06/12 10:56:46;;;;;;;27.58;7.95;;;22.40;63.30;;;;;;4950631;28;87675;-74
2022/06/12 10:59:36;;;;;;;22.02;6.63;;;22.40;63.20;;;;;;4951674;28;87961;-73
2022/06/12 11:02:40;;;;;;;23.17;6.88;;;22.40;63.30;;;;;;4954005;28;88079;-73
2022/06/12 11:05:34;;;;;;;21.58;6.65;;;22.40;63.20;;;;;;4922264;28;87879;-75
2022/06/12 11:08:36;;;;;;;23.60;6.07;;;22.40;63.40;;;;;;4958528;28;87787;-75
2022/06/12 11:11:18;;;;;;;20.25;6.35;;;22.40;63.50;;;;;;4952744;28;88137;-76
2022/06/12 11:13:51;;;;;;;25.30;7.50;;;22.40;63.70;;;;;;4951799;28;88996;-73
2022/06/12 11:16:31;;;;;;;21.75;6.13;;;22.40;64.10;;;;;;4952180;28;90239;-73
2022/06/12 11:19:22;;;;;;;16.38;4.68;;;22.40;64.10;;;;;;4959748;28;87025;-75
2022/06/12 11:22:15;;;;;;;22.33;5.13;;;22.40;62.10;;;;;;4956184;28;87140;-76
2022/06/12 11:24:59;;;;;;;17.60;5.60;;;22.40;61.90;;;;;;4959032;28;87929;-73
2022/06/12 11:27:33;;;;;;;22.75;5.20;;;22.40;63.30;;;;;;4952090;28;88607;-75
2022/06/12 11:30:11;;;;;;;24.65;4.78;;;22.40;63.50;;;;;;4954952;28;87917;-73
2022/06/12 11:33:05;;;;;;;23.08;4.97;;;22.40;62.80;;;;;;4957951;28;87778;-76
2022/06/12 11:35:34;;;;;;;17.38;4.82;;;22.50;62.60;;;;;;4961008;28;88124;-77
2022/06/12 11:38:21;;;;;;;17.17;4.45;;;22.40;61.90;;;;;;4960728;28;87939;-81
2022/06/12 11:40:55;;;;;;;13.55;4.40;;;22.40;61.50;;;;;;4960293;28;88396;-78
2022/06/12 11:43:21;;;;;;;15.65;4.88;;;22.40;61.60;;;;;;4965051;28;90187;-79
2022/06/12 11:46:06;;;;;;;14.88;5.00;;;22.40;61.90;;;;;;4958849;28;88160;-76
2022/06/12 11:49:04;;;;;;;16.75;4.45;;;22.40;62.20;;;;;;4952315;28;89634;-72
2022/06/12 11:51:47;;;;;;;13.75;4.20;;;22.40;62.30;;;;;;4949894;28;88136;-74
2022/06/12 11:54:25;;;;;;;18.50;3.88;;;22.50;61.80;;;;;;4950075;28;87897;-77
2022/06/12 11:57:26;;;;;;;16.15;4.60;;;22.60;59.30;;;;;;4952511;28;88184;-74
2022/06/12 12:00:18;;;;;;;11.35;4.47;;;22.50;61.30;;;;;;4907292;28;88075;-75
2022/06/12 12:03:02;;;;;;;13.93;4.65;;;22.50;61.80;;;;;;4952287;28;87240;-75
2022/06/12 12:05:45;;;;;;;18.02;4.30;;;22.50;62.10;;;;;;4950997;28;88146;-76
2022/06/12 12:08:10;;;;;;;13.07;4.03;;;22.40;62.10;;;;;;4957317;28;91208;-76
2022/06/12 12:10:46;;;;;;;15.52;4.57;;;22.40;62.30;;;;;;4955688;28;88752;-74
2022/06/12 12:13:27;;;;;;;20.83;5.18;;;22.40;62.20;;;;;;4952119;28;87963;-74
2022/06/12 12:16:02;;;;;;;14.57;4.18;;;22.40;62.20;;;;;;4956897;28;89190;-76
2022/06/12 12:18:42;;;;;;;15.07;4.50;;;22.40;63.20;;;;;;4951656;28;88232;-75
2022/06/12 12:21:16;;;;;;;12.32;3.88;;;22.40;62.50;;;;;;4954868;28;87757;-75
2022/06/12 12:23:46;;;;;;;13.80;4.13;;;22.40;62.70;;;;;;4971031;28;88192;-75
2022/06/12 12:26:33;;;;;;;12.73;4.82;;;22.40;62.60;;;;;;4967616;28;89315;-77
2022/06/12 12:29:02;;;;;;;12.45;4.35;;;22.40;62.60;;;;;;4957103;28;88064;-75
2022/06/12 12:31:31;;;;;;;12.57;3.80;;;22.40;62.60;;;;;;4959408;28;87566;-76
2022/06/12 12:34:01;;;;;;;13.23;4.00;;;22.40;63.00;;;;;;4970040;28;88478;-75
2022/06/12 12:42:24;;;;;;;9.18;3.70;;;22.40;62.80;;;;;;4955755;28;87933;-77
2022/06/12 12:44:50;;;;;;;13.57;4.30;;;22.40;62.60;;;;;;4955033;28;86999;-76
2022/06/12 12:47:36;;;;;;;10.27;3.60;;;22.40;62.80;;;;;;4956272;28;87170;-75
2022/06/12 12:50:17;;;;;;;14.30;4.80;;;22.40;62.90;;;;;;4953031;28;88025;-76
2022/06/12 12:52:55;;;;;;;11.45;3.60;;;22.40;62.70;;;;;;4951743;28;87401;-76
2022/06/12 12:55:26;;;;;;;9.85;3.95;;;22.40;62.70;;;;;;4953347;28;87950;-73
2022/06/12 12:57:57;;;;;;;11.77;4.00;;;22.40;62.70;;;;;;4952316;28;87386;-73
2022/06/12 13:00:25;;;;;;;13.18;4.25;;;22.40;62.80;;;;;;4956817;28;89176;-74
2022/06/12 13:02:56;;;;;;;12.23;4.25;;;22.40;62.80;;;;;;4965853;28;91655;-76
2022/06/12 13:05:38;;;;;;;9.73;3.83;;;22.40;62.80;;;;;;4955920;28;87585;-74
2022/06/12 13:08:31;;;;;;;8.43;3.40;;;22.40;62.80;;;;;;4955173;28;87845;-72
2022/06/12 13:11:12;;;;;;;12.50;4.18;;;22.40;62.60;;;;;;4950567;28;88109;-72
2022/06/12 13:14:05;;;;;;;10.38;4.13;;;22.40;62.70;;;;;;4955114;28;87877;-77
2022/06/12 13:16:39;;;;;;;10.25;3.42;;;22.40;62.30;;;;;;4954753;28;88091;-76
2022/06/12 13:19:23;;;;;;;13.75;3.70;;;22.40;62.40;;;;;;4960647;28;87105;-75
2022/06/12 13:22:31;;;;;;;10.15;3.78;;;22.50;62.60;;;;;;4950009;28;88730;-74
2022/06/12 13:25:12;;;;;;;7.97;3.83;;;22.50;62.40;;;;;;4921456;28;87927;-76
2022/06/12 13:27:52;;;;;;;11.65;4.07;;;22.50;62.60;;;;;;4952069;28;89076;-76
2022/06/12 13:30:32;;;;;;;13.07;3.60;;;22.50;63.00;;;;;;4957313;28;87073;-76
2022/06/12 13:33:30;;;;;;;8.88;3.35;;;22.50;63.10;;;;;;4952179;28;88664;-75
2022/06/12 13:36:09;;;;;;;11.05;4.00;;;22.60;63.70;;;;;;4949499;28;88107;-75